sensor_id;sensor_type;location;lat;lon;timestamp;pressure;altitude;pressure_sealevel;temperature;humidity
11413;BME280;5762;43.256;26.960;2022-07-09T00:00:45;99197.45;;;22.11;100.00
11413;BME280;5762;43.256;26.960;2022-07-09T00:03:14;99203.16;;;22.09;100.00
11413;BME280;5762;43.256;26.960;2022-07-09T00:05:43;99205.74;;;22.15;100.00
11413;BME280;5762;43.256;26.960;2022-07-09T00:08:12;99205.92;;;22.12;100.00
11413;BME280;5762;43.256;26.960;2022-07-09T00:10:41;99199.81;;;22.09;100.00
11413;BME280;5762;43.256;26.960;2022-07-09T00:13:11;99202.56;;;22.09;100.00
11413;BME280;5762;43.256;26.960;2022-07-09T00:15:40;99194.70;;;22.11;100.00
11413;BME280;5762;43.256;26.960;2022-07-09T00:18:10;99205.92;;;22.12;100.00
11413;BME280;5762;43.256;26.960;2022-07-09T00:20:39;99190.77;;;22.12;100.00
11413;BME280;5762;43.256;26.960;2022-07-09T00:23:08;99192.92;;;22.09;100.00
11413;BME280;5762;43.256;26.960;2022-07-09T00:25:37;99196.30;;;22.23;100.00
11413;BME280;5762;43.256;26.960;2022-07-09T00:28:06;99192.34;;;22.20;100.00
11413;BME280;5762;43.256;26.960;2022-07-09T00:30:35;99191.78;;;22.28;100.00
11413;BME280;5762;43.256;26.960;2022-07-09T00:33:04;99183.52;;;22.31;100.00
11413;BME280;5762;43.256;26.960;2022-07-09T00:35:33;99192.56;;;22.25;100.00
11413;BME280;5762;43.256;26.960;2022-07-09T00:38:03;99188.22;;;22.24;100.00
11413;BME280;5762;43.256;26.960;2022-07-09T00:43:02;99194.70;;;22.18;100.00
11413;BME280;5762;43.256;26.960;2022-07-09T00:45:31;99192.94;;;22.13;100.00
11413;BME280;5762;43.256;26.960;2022-07-09T00:48:00;99196.69;;;22.14;100.00
11413;BME280;5762;43.256;26.960;2022-07-09T00:50:29;99198.27;;;22.15;100.00
11413;BME280;5762;43.256;26.960;2022-07-09T00:52:58;99200.23;;;22.15;100.00
11413;BME280;5762;43.256;26.960;2022-07-09T00:55:28;99197.25;;;22.10;100.00
11413;BME280;5762;43.256;26.960;2022-07-09T00:57:57;99203.36;;;22.10;100.00
11413;BME280;5762;43.256;26.960;2022-07-09T01:00:26;99199.41;;;22.07;100.00
11413;BME280;5762;43.256;26.960;2022-07-09T01:02:55;99200.77;;;22.03;100.00
11413;BME280;5762;43.256;26.960;2022-07-09T01:07:54;99199.53;;;21.97;100.00
11413;BME280;5762;43.256;26.960;2022-07-09T01:10:23;99204.07;;;21.99;100.00
11413;BME280;5762;43.256;26.960;2022-07-09T01:12:52;99207.19;;;21.94;100.00
11413;BME280;5762;43.256;26.960;2022-07-09T01:15:22;99206.98;;;21.93;100.00
11413;BME280;5762;43.256;26.960;2022-07-09T01:17:51;99204.83;;;21.93;100.00
11413;BME280;5762;43.256;26.960;2022-07-09T01:20:22;99201.23;;;21.85;100.00
11413;BME280;5762;43.256;26.960;2022-07-09T01:22:50;99204.59;;;21.81;100.00
11413;BME280;5762;43.256;26.960;2022-07-09T01:25:19;99208.32;;;21.79;100.00
11413;BME280;5762;43.256;26.960;2022-07-09T01:27:48;99204.96;;;21.76;100.00
11413;BME280;5762;43.256;26.960;2022-07-09T01:35:17;99193.06;;;21.61;100.00
11413;BME280;5762;43.256;26.960;2022-07-09T01:37:46;99195.59;;;21.57;100.00
11413;BME280;5762;43.256;26.960;2022-07-09T01:40:15;99195.03;;;21.61;100.00
11413;BME280;5762;43.256;26.960;2022-07-09T01:42:44;99193.41;;;21.53;100.00
11413;BME280;5762;43.256;26.960;2022-07-09T01:45:16;99184.54;;;21.46;100.00
11413;BME280;5762;43.256;26.960;2022-07-09T01:47:44;99195.15;;;21.44;100.00
11413;BME280;5762;43.256;26.960;2022-07-09T01:50:13;99193.75;;;21.40;100.00
11413;BME280;5762;43.256;26.960;2022-07-09T01:52:43;99198.18;;;21.28;100.00
11413;BME280;5762;43.256;26.960;2022-07-09T01:55:12;99194.20;;;21.22;100.00
11413;BME280;5762;43.256;26.960;2022-07-09T01:57:41;99197.07;;;21.16;100.00
11413;BME280;5762;43.256;26.960;2022-07-09T02:00:10;99198.01;;;21.07;100.00
11413;BME280;5762;43.256;26.960;2022-07-09T02:02:39;99199.18;;;21.06;100.00
11413;BME280;5762;43.256;26.960;2022-07-09T02:05:08;99198.36;;;21.02;100.00
11413;BME280;5762;43.256;26.960;2022-07-09T02:07:37;99195.98;;;21.00;100.00
11413;BME280;5762;43.256;26.960;2022-07-09T02:10:07;99200.84;;;20.94;100.00
11413;BME280;5762;43.256;26.960;2022-07-09T02:12:36;99194.93;;;20.92;100.00
11413;BME280;5762;43.256;26.960;2022-07-09T02:15:06;99193.55;;;20.92;100.00
11413;BME280;5762;43.256;26.960;2022-07-09T02:17:35;99200.36;;;20.85;100.00
11413;BME280;5762;43.256;26.960;2022-07-09T02:20:04;99202.88;;;20.80;100.00
11413;BME280;5762;43.256;26.960;2022-07-09T02:22:34;99206.75;;;20.72;100.00
11413;BME280;5762;43.256;26.960;2022-07-09T02:25:04;99214.01;;;20.70;100.00
11413;BME280;5762;43.256;26.960;2022-07-09T02:27:33;99207.51;;;20.69;100.00
11413;BME280;5762;43.256;26.960;2022-07-09T02:30:02;99213.31;;;20.60;100.00
11413;BME280;5762;43.256;26.960;2022-07-09T02:32:32;99213.52;;;20.61;100.00
11413;BME280;5762;43.256;26.960;2022-07-09T02:35:01;99217.23;;;20.59;100.00
11413;BME280;5762;43.256;26.960;2022-07-09T02:37:30;99223.06;;;20.54;100.00
11413;BME280;5762;43.256;26.960;2022-07-09T02:40:00;99217.86;;;20.46;100.00
11413;BME280;5762;43.256;26.960;2022-07-09T02:42:29;99216.53;;;20.49;100.00
11413;BME280;5762;43.256;26.960;2022-07-09T02:44:58;99221.60;;;20.44;100.00
11413;BME280;5762;43.256;26.960;2022-07-09T02:47:27;99216.32;;;20.48;100.00
11413;BME280;5762;43.256;26.960;2022-07-09T02:49:56;99214.95;;;20.48;100.00
11413;BME280;5762;43.256;26.960;2022-07-09T02:52:25;99218.11;;;20.50;100.00
11413;BME280;5762;43.256;26.960;2022-07-09T02:57:24;99221.60;;;20.44;100.00
11413;BME280;5762;43.256;26.960;2022-07-09T02:59:53;99224.36;;;20.47;100.00
11413;BME280;5762;43.256;26.960;2022-07-09T03:02:22;99230.86;;;20.49;100.00
11413;BME280;5762;43.256;26.960;2022-07-09T03:04:51;99225.95;;;20.48;100.00
11413;BME280;5762;43.256;26.960;2022-07-09T03:07:21;99229.86;;;20.47;100.00
11413;BME280;5762;43.256;26.960;2022-07-09T03:09:50;99226.10;;;20.42;100.00
11413;BME280;5762;43.256;26.960;2022-07-09T03:12:19;99227.48;;;20.42;100.00
11413;BME280;5762;43.256;26.960;2022-07-09T03:14:48;99223.36;;;20.46;100.00
11413;BME280;5762;43.256;26.960;2022-07-09T03:17:17;99218.27;;;20.44;100.00
11413;BME280;5762;43.256;26.960;2022-07-09T03:19:47;99219.82;;;20.45;100.00
11413;BME280;5762;43.256;26.960;2022-07-09T03:22:16;99226.19;;;20.53;100.00
11413;BME280;5762;43.256;26.960;2022-07-09T03:24:45;99220.69;;;20.53;100.00
11413;BME280;5762;43.256;26.960;2022-07-09T03:27:14;99225.81;;;20.54;100.00
11413;BME280;5762;43.256;26.960;2022-07-09T03:29:43;99224.65;;;20.55;100.00
11413;BME280;5762;43.256;26.960;2022-07-09T03:32:12;99233.52;;;20.58;100.00
11413;BME280;5762;43.256;26.960;2022-07-09T03:34:41;99227.23;;;20.58;100.00
11413;BME280;5762;43.256;26.960;2022-07-09T03:37:10;99222.48;;;20.55;100.00
11413;BME280;5762;43.256;26.960;2022-07-09T03:39:40;99218.73;;;20.53;100.00
11413;BME280;5762;43.256;26.960;2022-07-09T03:42:09;99229.23;;;20.61;100.00
11413;BME280;5762;43.256;26.960;2022-07-09T03:44:38;99235.89;;;20.60;100.00
11413;BME280;5762;43.256;26.960;2022-07-09T03:49:37;99237.89;;;20.63;100.00
11413;BME280;5762;43.256;26.960;2022-07-09T03:52:06;99234.63;;;20.70;100.00
11413;BME280;5762;43.256;26.960;2022-07-09T03:54:35;99239.30;;;20.66;100.00
11413;BME280;5762;43.256;26.960;2022-07-09T03:57:04;99235.45;;;20.74;100.00
11413;BME280;5762;43.256;26.960;2022-07-09T03:59:33;99236.25;;;20.75;100.00
11413;BME280;5762;43.256;26.960;2022-07-09T04:02:03;99238.83;;;20.78;100.00
11413;BME280;5762;43.256;26.960;2022-07-09T04:04:32;99248.84;;;20.76;100.00
11413;BME280;5762;43.256;26.960;2022-07-09T04:07:01;99243.17;;;20.82;100.00
11413;BME280;5762;43.256;26.960;2022-07-09T04:12:00;99248.78;;;20.93;100.00
11413;BME280;5762;43.256;26.960;2022-07-09T04:14:29;99253.18;;;21.01;100.00
11413;BME280;5762;43.256;26.960;2022-07-09T04:16:58;99253.35;;;20.98;100.00
11413;BME280;5762;43.256;26.960;2022-07-09T04:19:27;99257.38;;;21.08;100.00
11413;BME280;5762;43.256;26.960;2022-07-09T04:21:56;99258.41;;;21.13;100.00
11413;BME280;5762;43.256;26.960;2022-07-09T04:26:55;99260.57;;;21.14;100.00
11413;BME280;5762;43.256;26.960;2022-07-09T04:29:24;99257.03;;;21.13;100.00
11413;BME280;5762;43.256;26.960;2022-07-09T04:31:53;99259.20;;;21.14;100.00
11413;BME280;5762;43.256;26.960;2022-07-09T04:34:22;99260.16;;;21.15;100.00
11413;BME280;5762;43.256;26.960;2022-07-09T04:36:51;99259.08;;;21.23;100.00
11413;BME280;5762;43.256;26.960;2022-07-09T04:39:21;99262.25;;;21.25;100.00
11413;BME280;5762;43.256;26.960;2022-07-09T04:41:50;99261.63;;;21.22;100.00
11413;BME280;5762;43.256;26.960;2022-07-09T04:44:19;99263.45;;;21.28;100.00
11413;BME280;5762;43.256;26.960;2022-07-09T04:46:48;99265.88;;;21.36;100.00
11413;BME280;5762;43.256;26.960;2022-07-09T04:49:18;99263.74;;;21.39;100.00
11413;BME280;5762;43.256;26.960;2022-07-09T04:51:47;99257.70;;;21.47;100.00
11413;BME280;5762;43.256;26.960;2022-07-09T04:54:16;99262.24;;;21.53;100.00
11413;BME280;5762;43.256;26.960;2022-07-09T04:56:45;99260.52;;;21.58;100.00
11413;BME280;5762;43.256;26.960;2022-07-09T04:59:14;99257.02;;;21.64;100.00
11413;BME280;5762;43.256;26.960;2022-07-09T05:01:43;99257.66;;;21.71;100.00
11413;BME280;5762;43.256;26.960;2022-07-09T05:04:12;99248.27;;;21.79;100.00
11413;BME280;5762;43.256;26.960;2022-07-09T05:06:41;99250.67;;;21.91;100.00
11413;BME280;5762;43.256;26.960;2022-07-09T05:09:11;99255.17;;;22.17;100.00
11413;BME280;5762;43.256;26.960;2022-07-09T05:11:40;99249.48;;;22.27;100.00
11413;BME280;5762;43.256;26.960;2022-07-09T05:14:09;99240.69;;;22.45;100.00
11413;BME280;5762;43.256;26.960;2022-07-09T05:16:38;99248.56;;;22.54;100.00
11413;BME280;5762;43.256;26.960;2022-07-09T05:19:07;99249.35;;;22.54;100.00
11413;BME280;5762;43.256;26.960;2022-07-09T05:21:37;99251.53;;;22.58;100.00
11413;BME280;5762;43.256;26.960;2022-07-09T05:24:06;99257.48;;;22.74;100.00
11413;BME280;5762;43.256;26.960;2022-07-09T05:26:35;99263.61;;;22.78;100.00
11413;BME280;5762;43.256;26.960;2022-07-09T05:29:04;99256.55;;;22.98;100.00
11413;BME280;5762;43.256;26.960;2022-07-09T05:31:34;99252.80;;;22.96;100.00
11413;BME280;5762;43.256;26.960;2022-07-09T05:34:03;99262.03;;;22.77;100.00
11413;BME280;5762;43.256;26.960;2022-07-09T05:39:02;99262.27;;;22.81;100.00
11413;BME280;5762;43.256;26.960;2022-07-09T05:41:32;99258.31;;;22.79;100.00
11413;BME280;5762;43.256;26.960;2022-07-09T05:44:01;99258.27;;;22.68;100.00
11413;BME280;5762;43.256;26.960;2022-07-09T05:46:30;99266.69;;;22.44;100.00
11413;BME280;5762;43.256;26.960;2022-07-09T05:48:59;99268.67;;;22.51;100.00
11413;BME280;5762;43.256;26.960;2022-07-09T05:51:28;99260.98;;;22.50;100.00
11413;BME280;5762;43.256;26.960;2022-07-09T05:53:57;99265.95;;;22.72;100.00
11413;BME280;5762;43.256;26.960;2022-07-09T05:56:26;99265.16;;;22.71;100.00
11413;BME280;5762;43.256;26.960;2022-07-09T05:58:55;99257.73;;;22.83;100.00
11413;BME280;5762;43.256;26.960;2022-07-09T06:01:24;99254.19;;;22.82;100.00
11413;BME280;5762;43.256;26.960;2022-07-09T06:03:53;99246.89;;;22.98;100.00
11413;BME280;5762;43.256;26.960;2022-07-09T06:06:23;99242.38;;;23.14;100.00
11413;BME280;5762;43.256;26.960;2022-07-09T06:08:52;99244.33;;;23.24;100.00
11413;BME280;5762;43.256;26.960;2022-07-09T06:11:21;99248.66;;;23.32;100.00
11413;BME280;5762;43.256;26.960;2022-07-09T06:13:50;99247.28;;;23.46;100.00
11413;BME280;5762;43.256;26.960;2022-07-09T06:16:19;99242.16;;;23.41;100.00
11413;BME280;5762;43.256;26.960;2022-07-09T06:18:48;99237.98;;;23.62;100.00
11413;BME280;5762;43.256;26.960;2022-07-09T06:21:17;99235.05;;;23.51;100.00
11413;BME280;5762;43.256;26.960;2022-07-09T06:23:46;99240.14;;;23.73;100.00
11413;BME280;5762;43.256;26.960;2022-07-09T06:26:16;99233.81;;;23.80;100.00
11413;BME280;5762;43.256;26.960;2022-07-09T06:28:45;99233.06;;;23.62;100.00
11413;BME280;5762;43.256;26.960;2022-07-09T06:31:16;99235.63;;;23.57;100.00
11413;BME280;5762;43.256;26.960;2022-07-09T06:33:45;99231.69;;;23.48;100.00
11413;BME280;5762;43.256;26.960;2022-07-09T06:36:14;99237.00;;;23.64;100.00
11413;BME280;5762;43.256;26.960;2022-07-09T06:38:43;99235.00;;;23.83;100.00
11413;BME280;5762;43.256;26.960;2022-07-09T06:41:13;99233.33;;;24.03;100.00
11413;BME280;5762;43.256;26.960;2022-07-09T06:43:42;99230.92;;;24.16;100.00
11413;BME280;5762;43.256;26.960;2022-07-09T06:46:11;99228.09;;;24.33;100.00
11413;BME280;5762;43.256;26.960;2022-07-09T06:48:40;99212.64;;;24.39;100.00
11413;BME280;5762;43.256;26.960;2022-07-09T06:51:09;99215.86;;;24.60;100.00
11413;BME280;5762;43.256;26.960;2022-07-09T06:53:38;99217.59;;;24.69;100.00
11413;BME280;5762;43.256;26.960;2022-07-09T06:56:08;99224.61;;;24.85;100.00
11413;BME280;5762;43.256;26.960;2022-07-09T06:58:37;99215.98;;;25.01;100.00
11413;BME280;5762;43.256;26.960;2022-07-09T07:01:06;99209.44;;;25.29;100.00
11413;BME280;5762;43.256;26.960;2022-07-09T07:03:35;99207.83;;;25.51;100.00
11413;BME280;5762;43.256;26.960;2022-07-09T07:06:04;99214.98;;;25.67;100.00
11413;BME280;5762;43.256;26.960;2022-07-09T07:08:33;99221.06;;;25.92;100.00
11413;BME280;5762;43.256;26.960;2022-07-09T07:11:03;99217.80;;;25.82;100.00
11413;BME280;5762;43.256;26.960;2022-07-09T07:13:32;99215.66;;;25.59;100.00
11413;BME280;5762;43.256;26.960;2022-07-09T07:16:01;99199.39;;;25.24;100.00
11413;BME280;5762;43.256;26.960;2022-07-09T07:18:30;99217.42;;;25.20;100.00
11413;BME280;5762;43.256;26.960;2022-07-09T07:20:59;99217.30;;;25.12;100.00
11413;BME280;5762;43.256;26.960;2022-07-09T07:23:28;99214.41;;;25.26;100.00
11413;BME280;5762;43.256;26.960;2022-07-09T07:25:58;99227.69;;;25.23;100.00
11413;BME280;5762;43.256;26.960;2022-07-09T07:28:27;99224.44;;;25.10;100.00
11413;BME280;5762;43.256;26.960;2022-07-09T07:30:56;99225.34;;;25.41;100.00
11413;BME280;5762;43.256;26.960;2022-07-09T07:33:25;99223.82;;;25.55;100.00
11413;BME280;5762;43.256;26.960;2022-07-09T07:35:55;99227.66;;;25.68;100.00
11413;BME280;5762;43.256;26.960;2022-07-09T07:40:54;99229.16;;;25.76;100.00
11413;BME280;5762;43.256;26.960;2022-07-09T07:43:23;99232.41;;;25.67;100.00
11413;BME280;5762;43.256;26.960;2022-07-09T07:45:52;99227.94;;;25.58;100.00
11413;BME280;5762;43.256;26.960;2022-07-09T07:48:21;99217.53;;;25.51;100.00
11413;BME280;5762;43.256;26.960;2022-07-09T07:50:50;99229.30;;;25.62;100.00
11413;BME280;5762;43.256;26.960;2022-07-09T07:53:20;99230.30;;;25.63;100.00
11413;BME280;5762;43.256;26.960;2022-07-09T07:55:49;99244.97;;;25.79;100.00
11413;BME280;5762;43.256;26.960;2022-07-09T07:58:18;99239.13;;;26.04;100.00
11413;BME280;5762;43.256;26.960;2022-07-09T08:00:47;99233.72;;;26.09;100.00
11413;BME280;5762;43.256;26.960;2022-07-09T08:03:17;99227.13;;;26.29;100.00
11413;BME280;5762;43.256;26.960;2022-07-09T08:05:46;99222.59;;;26.27;100.00
11413;BME280;5762;43.256;26.960;2022-07-09T08:08:15;99229.17;;;26.41;100.00
11413;BME280;5762;43.256;26.960;2022-07-09T08:13:15;99218.56;;;26.62;100.00
11413;BME280;5762;43.256;26.960;2022-07-09T08:15:44;99224.25;;;26.79;100.00
11413;BME280;5762;43.256;26.960;2022-07-09T08:18:13;99225.04;;;26.79;100.00
11413;BME280;5762;43.256;26.960;2022-07-09T08:20:43;99220.59;;;26.85;100.00
11413;BME280;5762;43.256;26.960;2022-07-09T08:23:12;99226.20;;;27.32;100.00
11413;BME280;5762;43.256;26.960;2022-07-09T08:25:41;99232.78;;;27.30;100.00
11413;BME280;5762;43.256;26.960;2022-07-09T08:28:10;99222.45;;;27.30;100.00
11413;BME280;5762;43.256;26.960;2022-07-09T08:30:39;99218.33;;;27.03;100.00
11413;BME280;5762;43.256;26.960;2022-07-09T08:33:08;99218.16;;;27.38;100.00
11413;BME280;5762;43.256;26.960;2022-07-09T08:35:37;99221.66;;;27.18;100.00
11413;BME280;5762;43.256;26.960;2022-07-09T08:38:07;99215.92;;;27.17;100.00
11413;BME280;5762;43.256;26.960;2022-07-09T08:40:36;99224.75;;;27.35;92.61
11413;BME280;5762;43.256;26.960;2022-07-09T08:43:05;99216.10;;;27.18;88.90
11413;BME280;5762;43.256;26.960;2022-07-09T08:45:34;99217.80;;;27.24;91.04
11413;BME280;5762;43.256;26.960;2022-07-09T08:48:04;99219.59;;;27.69;91.27
11413;BME280;5762;43.256;26.960;2022-07-09T08:50:33;99243.23;;;27.34;83.72
11413;BME280;5762;43.256;26.960;2022-07-09T08:53:03;99231.09;;;27.24;81.06
11413;BME280;5762;43.256;26.960;2022-07-09T08:55:33;99222.33;;;27.38;80.53
11413;BME280;5762;43.256;26.960;2022-07-09T08:58:03;99217.98;;;27.36;81.68
11413;BME280;5762;43.256;26.960;2022-07-09T09:00:32;99225.73;;;27.57;84.53
11413;BME280;5762;43.256;26.960;2022-07-09T09:03:01;99213.94;;;27.73;86.17
11413;BME280;5762;43.256;26.960;2022-07-09T09:05:30;99232.94;;;27.43;82.82
11413;BME280;5762;43.256;26.960;2022-07-09T09:07:59;99221.27;;;27.40;80.11
11413;BME280;5762;43.256;26.960;2022-07-09T09:10:28;99207.38;;;27.51;80.98
11413;BME280;5762;43.256;26.960;2022-07-09T09:12:58;99203.76;;;27.66;79.05
11413;BME280;5762;43.256;26.960;2022-07-09T09:15:28;99214.57;;;27.72;80.58
11413;BME280;5762;43.256;26.960;2022-07-09T09:17:57;99203.52;;;27.68;80.31
11413;BME280;5762;43.256;26.960;2022-07-09T09:20:26;99228.55;;;27.77;77.58
11413;BME280;5762;43.256;26.960;2022-07-09T09:22:55;99207.38;;;27.40;81.25
11413;BME280;5762;43.256;26.960;2022-07-09T09:25:25;99200.57;;;27.76;79.62
11413;BME280;5762;43.256;26.960;2022-07-09T09:30:25;99188.16;;;27.72;78.92
11413;BME280;5762;43.256;26.960;2022-07-09T09:35:24;99186.56;;;28.39;79.49
11413;BME280;5762;43.256;26.960;2022-07-09T09:37:54;99190.41;;;28.53;76.78
11413;BME280;5762;43.256;26.960;2022-07-09T09:40:24;99183.02;;;28.62;72.40
11413;BME280;5762;43.256;26.960;2022-07-09T09:42:53;99191.98;;;28.78;72.37
11413;BME280;5762;43.256;26.960;2022-07-09T09:45:23;99186.63;;;28.95;72.74
11413;BME280;5762;43.256;26.960;2022-07-09T09:47:52;99200.45;;;28.83;68.69
11413;BME280;5762;43.256;26.960;2022-07-09T09:50:22;99185.45;;;28.60;70.63
11413;BME280;5762;43.256;26.960;2022-07-09T09:52:52;99190.52;;;28.74;70.35
11413;BME280;5762;43.256;26.960;2022-07-09T09:55:22;99180.56;;;28.48;71.19
11413;BME280;5762;43.256;26.960;2022-07-09T09:57:51;99167.09;;;28.55;71.80
11413;BME280;5762;43.256;26.960;2022-07-09T10:00:21;99179.22;;;28.09;69.50
11413;BME280;5762;43.256;26.960;2022-07-09T10:02:50;99168.70;;;28.08;66.39
11413;BME280;5762;43.256;26.960;2022-07-09T10:05:19;99180.13;;;28.50;65.74
11413;BME280;5762;43.256;26.960;2022-07-09T10:07:48;99176.45;;;28.28;67.20
11413;BME280;5762;43.256;26.960;2022-07-09T10:10:21;99171.16;;;28.14;65.94
11413;BME280;5762;43.256;26.960;2022-07-09T10:12:50;99170.72;;;28.44;65.17
11413;BME280;5762;43.256;26.960;2022-07-09T10:15:19;99158.91;;;28.56;63.42
11413;BME280;5762;43.256;26.960;2022-07-09T10:17:49;99170.83;;;28.56;64.30
11413;BME280;5762;43.256;26.960;2022-07-09T10:20:28;99158.57;;;28.62;63.97
11413;BME280;5762;43.256;26.960;2022-07-09T10:22:48;99160.93;;;28.72;64.31
11413;BME280;5762;43.256;26.960;2022-07-09T10:27:47;99152.31;;;28.66;65.61
11413;BME280;5762;43.256;26.960;2022-07-09T10:32:46;99133.86;;;28.96;65.25
11413;BME280;5762;43.256;26.960;2022-07-09T10:35:16;99145.41;;;28.79;65.71
11413;BME280;5762;43.256;26.960;2022-07-09T10:37:45;99148.40;;;29.04;66.50
11413;BME280;5762;43.256;26.960;2022-07-09T10:40:15;99136.72;;;29.46;63.75
11413;BME280;5762;43.256;26.960;2022-07-09T10:42:45;99148.39;;;29.78;64.40
11413;BME280;5762;43.256;26.960;2022-07-09T10:45:16;99147.30;;;29.30;63.15
11413;BME280;5762;43.256;26.960;2022-07-09T10:47:44;99148.36;;;29.20;59.92
11413;BME280;5762;43.256;26.960;2022-07-09T10:50:13;99145.06;;;28.77;61.63
11413;BME280;5762;43.256;26.960;2022-07-09T10:52:43;99141.95;;;29.07;63.18
11413;BME280;5762;43.256;26.960;2022-07-09T10:55:14;99144.48;;;28.93;64.09
11413;BME280;5762;43.256;26.960;2022-07-09T10:57:42;99146.70;;;29.15;64.30
11413;BME280;5762;43.256;26.960;2022-07-09T11:05:11;99133.48;;;29.48;64.43
11413;BME280;5762;43.256;26.960;2022-07-09T11:07:40;99139.36;;;29.66;63.05
11413;BME280;5762;43.256;26.960;2022-07-09T11:10:17;99114.50;;;29.72;61.53
11413;BME280;5762;43.256;26.960;2022-07-09T11:12:39;99141.47;;;29.62;61.28
11413;BME280;5762;43.256;26.960;2022-07-09T11:15:15;99141.03;;;29.43;61.87
11413;BME280;5762;43.256;26.960;2022-07-09T11:17:38;99148.19;;;29.98;60.81
11413;BME280;5762;43.256;26.960;2022-07-09T11:20:09;99139.75;;;29.93;61.42
11413;BME280;5762;43.256;26.960;2022-07-09T11:22:37;99154.48;;;29.94;60.48
11413;BME280;5762;43.256;26.960;2022-07-09T11:25:06;99142.06;;;29.82;60.10
11413;BME280;5762;43.256;26.960;2022-07-09T11:27:39;99136.39;;;30.19;59.74
11413;BME280;5762;43.256;26.960;2022-07-09T11:30:06;99139.43;;;30.12;59.60
11413;BME280;5762;43.256;26.960;2022-07-09T11:32:35;99136.47;;;30.37;60.52
11413;BME280;5762;43.256;26.960;2022-07-09T11:35:04;99135.84;;;29.91;63.43
11413;BME280;5762;43.256;26.960;2022-07-09T11:37:33;99131.48;;;29.48;64.03
11413;BME280;5762;43.256;26.960;2022-07-09T11:40:02;98942.74;;;27.60;64.32
11413;BME280;5762;43.256;26.960;2022-07-09T11:42:31;99128.67;;;29.19;63.81
11413;BME280;5762;43.256;26.960;2022-07-09T11:45:00;99128.38;;;29.67;59.76
11413;BME280;5762;43.256;26.960;2022-07-09T11:47:32;99126.91;;;30.04;57.62
11413;BME280;5762;43.256;26.960;2022-07-09T11:52:29;99131.70;;;30.04;56.85
11413;BME280;5762;43.256;26.960;2022-07-09T11:54:59;99115.97;;;30.35;55.44
11413;BME280;5762;43.256;26.960;2022-07-09T11:57:29;99115.02;;;30.59;55.92
11413;BME280;5762;43.256;26.960;2022-07-09T11:59:58;99107.80;;;30.15;57.54
11413;BME280;5762;43.256;26.960;2022-07-09T12:04:57;99104.91;;;29.85;56.75
11413;BME280;5762;43.256;26.960;2022-07-09T12:07:27;99108.99;;;30.35;55.13
11413;BME280;5762;43.256;26.960;2022-07-09T12:12:26;99111.88;;;30.70;52.75
11413;BME280;5762;43.256;26.960;2022-07-09T12:14:55;99099.33;;;30.19;54.53
11413;BME280;5762;43.256;26.960;2022-07-09T12:17:25;99104.86;;;30.02;54.60
11413;BME280;5762;43.256;26.960;2022-07-09T12:19:55;99106.61;;;29.33;55.40
11413;BME280;5762;43.256;26.960;2022-07-09T12:22:25;99099.42;;;29.48;55.44
11413;BME280;5762;43.256;26.960;2022-07-09T12:24:54;99099.09;;;29.67;55.10
11413;BME280;5762;43.256;26.960;2022-07-09T12:27:23;99101.13;;;29.92;53.88
11413;BME280;5762;43.256;26.960;2022-07-09T12:29:52;99097.66;;;29.88;54.04
11413;BME280;5762;43.256;26.960;2022-07-09T12:32:21;99085.80;;;29.29;55.83
11413;BME280;5762;43.256;26.960;2022-07-09T12:34:50;99102.08;;;29.60;57.20
11413;BME280;5762;43.256;26.960;2022-07-09T12:37:19;99103.61;;;29.69;53.02
11413;BME280;5762;43.256;26.960;2022-07-09T12:39:48;99103.00;;;29.82;53.21
11413;BME280;5762;43.256;26.960;2022-07-09T12:42:18;99095.81;;;30.23;52.79
11413;BME280;5762;43.256;26.960;2022-07-09T12:44:47;99091.73;;;30.45;52.44
11413;BME280;5762;43.256;26.960;2022-07-09T12:47:17;99073.83;;;30.85;50.88
11413;BME280;5762;43.256;26.960;2022-07-09T12:49:46;99091.05;;;29.48;52.05
11413;BME280;5762;43.256;26.960;2022-07-09T12:52:15;99085.81;;;29.21;52.96
11413;BME280;5762;43.256;26.960;2022-07-09T12:54:44;99089.35;;;30.13;52.78
11413;BME280;5762;43.256;26.960;2022-07-09T12:57:14;99087.09;;;30.46;51.11
11413;BME280;5762;43.256;26.960;2022-07-09T12:59:43;99081.25;;;30.53;50.51
11413;BME280;5762;43.256;26.960;2022-07-09T13:02:12;99073.64;;;30.37;50.87
11413;BME280;5762;43.256;26.960;2022-07-09T13:04:41;99068.41;;;30.86;50.82
11413;BME280;5762;43.256;26.960;2022-07-09T13:07:10;99072.98;;;30.50;49.78
11413;BME280;5762;43.256;26.960;2022-07-09T13:09:40;99071.58;;;29.61;52.24
11413;BME280;5762;43.256;26.960;2022-07-09T13:12:08;99067.94;;;29.56;53.06
11413;BME280;5762;43.256;26.960;2022-07-09T13:14:38;99070.94;;;28.75;55.58
11413;BME280;5762;43.256;26.960;2022-07-09T13:17:07;99054.72;;;28.78;52.34
11413;BME280;5762;43.256;26.960;2022-07-09T13:19:36;99065.80;;;28.73;52.56
11413;BME280;5762;43.256;26.960;2022-07-09T13:22:05;99061.27;;;29.16;52.23
11413;BME280;5762;43.256;26.960;2022-07-09T13:24:35;99056.53;;;29.29;51.23
11413;BME280;5762;43.256;26.960;2022-07-09T13:27:04;99045.05;;;29.48;51.52
11413;BME280;5762;43.256;26.960;2022-07-09T13:29:33;99064.63;;;30.07;50.43
11413;BME280;5762;43.256;26.960;2022-07-09T13:32:03;99042.23;;;30.03;50.20
11413;BME280;5762;43.256;26.960;2022-07-09T13:34:32;99041.58;;;30.41;50.51
11413;BME280;5762;43.256;26.960;2022-07-09T13:37:02;99043.20;;;30.34;50.99
11413;BME280;5762;43.256;26.960;2022-07-09T13:39:31;99039.81;;;30.64;50.00
11413;BME280;5762;43.256;26.960;2022-07-09T13:42:00;99043.72;;;30.24;49.66
11413;BME280;5762;43.256;26.960;2022-07-09T13:44:32;99051.13;;;29.97;48.84
11413;BME280;5762;43.256;26.960;2022-07-09T13:47:01;99042.19;;;30.11;48.91
11413;BME280;5762;43.256;26.960;2022-07-09T13:49:30;99042.42;;;29.28;50.86
11413;BME280;5762;43.256;26.960;2022-07-09T13:51:59;99036.07;;;29.49;51.86